Ailingzi, China

70°F / 21°C
Mostly Cloudy
Humidity: 64%
Dew Point: 57°F / 14°C
Wind: Variable at 2 mph / 4 km/h
Pressure: 30.06 in / 1018 hPa (Falling)
Visibility: 6.2 miles / 10.0 kilometers
Clouds: Mostly Cloudy (BKN) : 3000 ft / 914 m
Yesterday's Maximum: 72°F / 22°C
Yesterday's Minimum: 64°F / 18°C approx.
Yesterday's Cooling Degree Days: 3 approx.
UV: 6 out of 16
Sunrise:6:45 AM CST
Sunset:6:15 PM CST
Moon Rise:9:09 PM CST
Moon Set:8:43 AM CST
Moon Phase Waning Gibbous
NOAA Weather Radio
No local feed.
METAR ZGOW 220400Z VRB01MPS 9999 BKN030 21/14 Q1018 NOSIG
As of: 12:00 PM CST on February 22, 2019
Observed at: Shantou, China

View Station's History

Local Satellite

Current Satellite Forecast
Region Default Local
No Yes

View Full Screen WunderMap

Forecast

Current Satellite Forecast
Thursday
. High: 71° F. / 21° C.

. High: 70° F. / 21° C.

Features

Weather Apps

WunderRadio

Weather Underground Apps
Check out our wide variety of mobile and setup applications.

Weather Underground Applications

Top of Page

© Copyright 2019
The Weather Company, LLC